createdAt,value
2023-04-23T00:01:09.197Z,6.95
2023-04-23T00:06:11.458Z,8.05
2023-04-23T00:11:13.231Z,7.22
2023-04-23T00:16:15.873Z,6.53
2023-04-23T00:21:17.528Z,8.02
2023-04-23T00:26:19.083Z,8.10
2023-04-23T00:31:22.543Z,7.15
2023-04-23T00:36:24.156Z,8.57
2023-04-23T00:41:27.333Z,7.63
2023-04-23T00:46:28.967Z,9.82
2023-04-23T00:51:32.084Z,8.23
2023-04-23T00:56:33.736Z,9.70
2023-04-23T01:01:35.623Z,7.93
2023-04-23T01:06:37.560Z,8.00
2023-04-23T01:11:40.564Z,6.10
2023-04-23T01:16:42.565Z,5.43
2023-04-23T01:21:44.393Z,6.25
2023-04-23T01:26:46.715Z,8.07
2023-04-23T01:31:48.540Z,7.07
2023-04-23T01:36:51.895Z,8.13
2023-04-23T01:41:53.589Z,7.03
2023-04-23T01:46:56.585Z,7.90
2023-04-23T01:51:58.153Z,6.57
2023-04-23T01:57:00.166Z,7.78
2023-04-23T02:02:01.857Z,7.30
2023-04-23T02:07:03.493Z,5.70
2023-04-23T02:12:05.145Z,6.40
2023-04-23T02:17:07.080Z,6.05
2023-04-23T02:22:09.315Z,6.28
2023-04-23T02:27:10.970Z,7.13
2023-04-23T02:32:12.674Z,8.82
2023-04-23T02:37:14.222Z,7.53
2023-04-23T02:42:16.070Z,9.75
2023-04-23T02:47:17.696Z,8.18
2023-04-23T02:52:19.369Z,6.97
2023-04-23T02:57:21.296Z,7.05
2023-04-23T03:02:23.185Z,6.70
2023-04-23T03:07:25.433Z,6.55
2023-04-23T03:12:27.011Z,11.25
2023-04-23T03:17:28.623Z,7.85
2023-04-23T03:22:30.333Z,5.85
2023-04-23T03:27:32.006Z,6.63
2023-04-23T03:32:33.644Z,8.60
2023-04-23T03:37:35.444Z,6.03
2023-04-23T03:42:38.726Z,7.68
2023-04-23T03:47:41.027Z,6.63
2023-04-23T03:52:43.322Z,5.97
2023-04-23T03:57:52.833Z,5.65
2023-04-23T04:02:58.136Z,9.23
2023-04-23T04:08:01.807Z,6.72
2023-04-23T04:13:04.910Z,5.45
2023-04-23T04:18:06.867Z,5.50
2023-04-23T04:23:08.419Z,5.78
2023-04-23T04:28:11.852Z,6.85
2023-04-23T04:33:15.081Z,7.22
2023-04-23T04:38:16.693Z,8.85
2023-04-23T04:43:18.482Z,5.75
2023-04-23T04:48:20.673Z,6.10
2023-04-23T04:53:22.396Z,7.35
2023-04-23T04:58:23.979Z,7.18
2023-04-23T05:03:26.239Z,10.27
2023-04-23T05:08:27.933Z,7.50
2023-04-23T05:13:29.709Z,8.10
2023-04-23T05:18:31.291Z,6.20
2023-04-23T05:23:33.741Z,6.05
2023-04-23T05:28:35.304Z,5.70
2023-04-23T05:33:46.758Z,6.85
2023-04-23T05:38:51.201Z,6.28
2023-04-23T05:43:52.758Z,7.15
2023-04-23T05:48:54.373Z,9.23
2023-04-23T05:53:55.960Z,7.07
2023-04-23T05:58:57.956Z,6.25
2023-04-23T06:04:00.147Z,6.65
2023-04-23T06:09:01.904Z,6.07
2023-04-23T06:14:03.608Z,10.35
2023-04-23T06:19:05.212Z,6.40
2023-04-23T06:24:08.067Z,6.63
2023-04-23T06:29:09.821Z,7.63
2023-04-23T06:34:34.025Z,4.85
2023-04-23T06:39:35.580Z,5.93
2023-04-23T06:44:37.206Z,10.18
2023-04-23T06:49:40.354Z,4.45
2023-04-23T06:54:42.216Z,6.05
2023-04-23T06:59:43.974Z,4.07
2023-04-23T07:04:46.906Z,5.25
2023-04-23T07:09:48.684Z,6.15
2023-04-23T07:14:53.485Z,3.03
2023-04-23T07:19:55.093Z,2.42
2023-04-23T07:24:56.678Z,3.15
2023-04-23T07:29:58.378Z,2.33
2023-04-23T07:34:59.979Z,3.17
2023-04-23T07:40:02.304Z,2.88
2023-04-23T07:45:05.035Z,2.88
2023-04-23T07:50:07.493Z,3.00
2023-04-23T07:55:09.764Z,2.83
2023-04-23T08:00:12.172Z,2.45
2023-04-23T08:05:13.714Z,3.72
2023-04-23T08:10:15.438Z,4.07
2023-04-23T08:15:17.004Z,2.35
2023-04-23T08:20:19.652Z,2.25
2023-04-23T08:25:21.310Z,1.67
2023-04-23T08:30:23.051Z,1.63
2023-04-23T08:35:24.870Z,2.25
2023-04-23T08:40:30.282Z,1.58
2023-04-23T08:45:31.971Z,2.08
2023-04-23T08:50:33.727Z,1.85
2023-04-23T08:55:38.351Z,1.50
2023-04-23T09:00:40.522Z,1.50
2023-04-23T09:05:42.362Z,1.50
2023-04-23T09:10:44.694Z,1.60
2023-04-23T09:15:46.327Z,1.85
2023-04-23T09:20:47.999Z,1.35
2023-04-23T09:25:49.561Z,0.90
2023-04-23T09:30:51.176Z,2.47
2023-04-23T09:35:52.773Z,1.33
2023-04-23T09:40:54.428Z,1.30
2023-04-23T09:45:56.077Z,1.35
2023-04-23T09:50:57.648Z,1.25
2023-04-23T09:55:59.217Z,1.00
2023-04-23T10:01:10.075Z,2.05
2023-04-23T10:06:30.640Z,1.60
2023-04-23T10:11:37.078Z,1.02
2023-04-23T10:16:48.649Z,1.30
2023-04-23T10:22:05.396Z,1.15
2023-04-23T10:32:27.872Z,1.88
2023-04-23T10:37:29.736Z,1.50
2023-04-23T10:42:31.855Z,1.02
2023-04-23T10:47:33.474Z,0.80
2023-04-23T10:52:35.741Z,0.80
2023-04-23T10:58:13.154Z,1.13
2023-04-23T11:03:29.222Z,1.00
2023-04-23T11:08:34.404Z,0.80
2023-04-23T11:13:35.979Z,0.90
2023-04-23T11:18:56.883Z,0.95
2023-04-23T11:24:02.138Z,1.60
2023-04-23T11:29:04.305Z,1.33
2023-04-23T11:34:05.861Z,1.92
2023-04-23T11:39:08.480Z,1.13
2023-04-23T11:44:10.095Z,1.38
2023-04-23T11:49:13.215Z,0.93
2023-04-23T11:54:15.018Z,1.30
2023-04-23T11:59:16.745Z,1.17
2023-04-23T12:04:23.515Z,1.08
2023-04-23T12:09:27.727Z,1.27
2023-04-23T12:14:30.829Z,1.65
2023-04-23T12:19:32.596Z,1.58
2023-04-23T12:24:48.615Z,1.58
2023-04-23T12:30:00.057Z,1.38
2023-04-23T12:35:01.648Z,1.98
2023-04-23T12:40:07.039Z,1.27
2023-04-23T12:45:09.883Z,2.03
2023-04-23T12:50:12.230Z,1.25
2023-04-23T12:55:13.824Z,1.15
2023-04-23T13:00:15.729Z,1.10
2023-04-23T13:05:17.392Z,1.73
2023-04-23T13:10:19.323Z,1.17
2023-04-23T13:15:20.887Z,1.13
2023-04-23T13:20:22.595Z,1.20
2023-04-23T13:25:24.209Z,1.30
2023-04-23T13:30:25.779Z,1.05
2023-04-23T13:35:27.523Z,1.55
2023-04-23T13:40:29.132Z,1.20
2023-04-23T13:45:30.812Z,0.90
2023-04-23T13:50:32.383Z,0.90
2023-04-23T13:55:33.945Z,0.90
2023-04-23T14:00:35.530Z,1.13
2023-04-23T14:05:38.243Z,1.20
2023-04-23T14:10:42.382Z,1.45
2023-04-23T14:15:45.238Z,1.00
2023-04-23T14:20:47.007Z,1.50
2023-04-23T14:25:53.637Z,1.33
2023-04-23T14:30:56.632Z,1.63
2023-04-23T14:35:58.882Z,1.17
2023-04-23T14:41:00.589Z,0.82
2023-04-23T14:46:02.200Z,1.05
2023-04-23T14:51:04.193Z,1.95
2023-04-23T14:56:06.067Z,1.75
2023-04-23T15:01:07.795Z,1.85
2023-04-23T15:06:09.435Z,1.85
2023-04-23T15:11:13.459Z,2.22
2023-04-23T15:16:40.450Z,2.05
2023-04-23T15:21:49.311Z,3.30
2023-04-23T15:26:53.245Z,3.03
2023-04-23T15:31:58.014Z,1.90
2023-04-23T15:36:59.901Z,2.40
2023-04-23T15:42:02.104Z,6.88
2023-04-23T15:47:03.693Z,2.13
2023-04-23T15:52:05.777Z,1.70
2023-04-23T15:57:07.328Z,10.75
2023-04-23T16:02:09.011Z,5.38
2023-04-23T16:07:10.633Z,3.70
2023-04-23T16:12:12.684Z,3.65
2023-04-23T16:17:14.277Z,2.55
2023-04-23T16:22:17.444Z,13.43
2023-04-23T16:27:19.019Z,3.83
2023-04-23T16:32:20.821Z,2.40
2023-04-23T16:37:22.577Z,2.75
2023-04-23T16:42:24.239Z,2.95
2023-04-23T16:47:26.709Z,3.67
2023-04-23T16:52:28.309Z,7.82
2023-04-23T16:57:30.027Z,2.90
2023-04-23T17:02:32.386Z,2.55
2023-04-23T17:07:34.251Z,2.20
2023-04-23T17:12:35.806Z,2.90
2023-04-23T17:17:38.243Z,5.65
2023-04-23T17:22:39.845Z,5.72
2023-04-23T17:27:41.406Z,6.63
2023-04-23T17:32:43.089Z,5.13
2023-04-23T17:37:44.714Z,4.97
2023-04-23T17:42:46.317Z,5.80
2023-04-23T17:47:47.934Z,7.15
2023-04-23T17:52:51.543Z,3.90
2023-04-23T17:57:53.185Z,2.95
2023-04-23T18:02:55.089Z,2.40
2023-04-23T18:07:57.078Z,3.47
2023-04-23T18:13:01.158Z,2.30
2023-04-23T18:18:03.363Z,2.10
2023-04-23T18:23:06.474Z,2.13
2023-04-23T18:28:08.172Z,2.35
2023-04-23T18:33:16.564Z,3.17
2023-04-23T18:38:31.851Z,2.58
2023-04-23T18:43:34.336Z,2.95
2023-04-23T18:48:35.869Z,2.53
2023-04-23T18:53:38.970Z,2.55
2023-04-23T18:58:40.598Z,2.50
2023-04-23T19:03:42.858Z,2.60
2023-04-23T19:08:44.680Z,2.90
2023-04-23T19:13:46.667Z,2.60
2023-04-23T19:18:48.385Z,2.78
2023-04-23T19:23:51.766Z,3.05
2023-04-23T19:28:53.359Z,2.47
2023-04-23T19:33:54.941Z,4.30
2023-04-23T19:38:57.012Z,3.63
2023-04-23T19:43:58.632Z,2.30
2023-04-23T19:49:00.222Z,2.22
2023-04-23T19:54:02.873Z,4.47
2023-04-23T19:59:07.164Z,2.75
2023-04-23T20:04:09.243Z,2.70
2023-04-23T20:09:18.237Z,2.60
2023-04-23T20:14:20.161Z,2.47
2023-04-23T20:19:25.703Z,2.53
2023-04-23T20:24:27.307Z,2.47
2023-04-23T20:29:30.562Z,2.30
2023-04-23T20:34:32.107Z,4.88
2023-04-23T20:39:34.359Z,2.25
2023-04-23T20:44:36.252Z,3.78
2023-04-23T20:49:38.905Z,2.55
2023-04-23T20:54:40.636Z,2.65
2023-04-23T20:59:42.684Z,2.72
2023-04-23T21:04:44.700Z,3.03
2023-04-23T21:09:46.355Z,2.35
2023-04-23T21:14:47.989Z,2.58
2023-04-23T21:19:49.760Z,2.50
2023-04-23T21:24:51.363Z,9.23
2023-04-23T21:29:53.015Z,3.00
2023-04-23T21:34:54.588Z,2.95
2023-04-23T21:39:56.236Z,3.33
2023-04-23T21:44:57.828Z,3.70
2023-04-23T21:50:00.267Z,4.22
2023-04-23T21:55:01.925Z,3.92
2023-04-23T22:00:06.515Z,4.18
2023-04-23T22:05:16.939Z,4.25
2023-04-23T22:10:19.515Z,4.72
2023-04-23T22:15:21.157Z,4.30
2023-04-23T22:20:24.476Z,4.35
2023-04-23T22:25:26.122Z,3.88
2023-04-23T22:30:27.750Z,5.78
2023-04-23T22:35:29.365Z,5.18
2023-04-23T22:40:30.989Z,3.92
2023-04-23T22:45:32.606Z,4.18
2023-04-23T22:50:34.182Z,4.55
2023-04-23T22:55:35.816Z,4.13
2023-04-23T23:00:37.405Z,5.30
2023-04-23T23:05:39.540Z,4.25
2023-04-23T23:10:41.140Z,4.10
2023-04-23T23:15:42.794Z,4.35
2023-04-23T23:20:45.212Z,4.00
2023-04-23T23:25:46.767Z,4.63
2023-04-23T23:30:49.430Z,3.83
2023-04-23T23:35:51.271Z,4.28
2023-04-23T23:40:52.850Z,3.83
2023-04-23T23:45:54.448Z,3.80
2023-04-23T23:50:56.049Z,5.20
2023-04-23T23:55:58.100Z,3.47
